Time;durP1;ratioP1;P1;durP2;ratioP2;P2;SDS_P1;SDS_P2;PMS_P1;PMS_P2;Temp;Humidity;BMP_temperature;BMP_pressure;BME280_temperature;BME280_humidity;BME280_pressure;Samples;Min_cycle;Max_cycle;Signal;HPM_P1;HPM_P2
2022/06/14 00:01:28;;;;;;;;;4.50;4.50;;;;;;;;5000472;28;9592;-76
2022/06/14 00:03:57;;;;;;;;;6.00;6.00;;;;;;;;5019888;28;9588;-76
2022/06/14 00:06:28;;;;;;;;;5.75;5.50;;;;;;;;5017869;28;10442;-76
2022/06/14 00:08:56;;;;;;;;;3.75;3.75;;;;;;;;5015794;28;10308;-77
2022/06/14 00:11:26;;;;;;;;;7.67;5.67;;;;;;;;5020648;28;9625;-77
2022/06/14 00:13:55;;;;;;;;;2.67;2.67;;;;;;;;5017557;28;9565;-77
2022/06/14 00:16:23;;;;;;;;;3.67;3.67;;;;;;;;5016074;28;9462;-77
2022/06/14 00:18:50;;;;;;;;;3.00;3.00;;;;;;;;5017047;28;9209;-76
2022/06/14 00:21:18;;;;;;;;;3.00;3.00;;;;;;;;5020287;28;9199;-77
2022/06/14 00:23:47;;;;;;;;;4.67;3.00;;;;;;;;5019464;28;9294;-76
2022/06/14 00:26:14;;;;;;;;;3.00;3.00;;;;;;;;5018917;28;9539;-77
2022/06/14 00:28:44;;;;;;;;;3.00;3.00;;;;;;;;5019682;28;9006;-77
2022/06/14 00:31:15;;;;;;;;;4.25;4.25;;;;;;;;5000642;28;8839;-77
2022/06/14 00:33:43;;;;;;;;;3.00;3.00;;;;;;;;5020067;28;8865;-76
2022/06/14 00:36:20;;;;;;;;;3.75;2.25;;;;;;;;5020738;28;9087;-77
2022/06/14 00:38:49;;;;;;;;;4.00;4.00;;;;;;;;5016822;28;8881;-76
2022/06/14 00:41:33;;;;;;;;;2.00;2.00;;;;;;;;5018711;28;9684;-76
2022/06/14 00:44:00;;;;;;;;;2.00;2.00;;;;;;;;5015024;28;8892;-76
2022/06/14 00:46:33;;;;;;;;;2.75;2.00;;;;;;;;5000616;28;8987;-76
2022/06/14 00:49:05;;;;;;;;;2.00;2.00;;;;;;;;5019304;28;8891;-76
2022/06/14 00:51:36;;;;;;;;;2.50;2.50;;;;;;;;5020286;28;8975;-76
2022/06/14 00:54:11;;;;;;;;;4.50;3.75;;;;;;;;5014953;28;9629;-76
2022/06/14 00:56:46;;;;;;;;;2.00;2.00;;;;;;;;5020900;28;8871;-76
2022/06/14 00:59:17;;;;;;;;;3.00;3.00;;;;;;;;5019870;28;8900;-76
2022/06/14 01:01:45;;;;;;;;;2.67;2.00;;;;;;;;5016019;28;8919;-77
2022/06/14 01:04:16;;;;;;;;;2.00;2.00;;;;;;;;5018618;28;9003;-76
2022/06/14 01:06:53;;;;;;;;;2.00;2.00;;;;;;;;5018576;28;8967;-75
2022/06/14 01:09:26;;;;;;;;;2.00;2.00;;;;;;;;5017292;28;8995;-77
2022/06/14 01:11:56;;;;;;;;;2.33;2.00;;;;;;;;4997320;28;8963;-78
2022/06/14 01:14:27;;;;;;;;;3.00;3.00;;;;;;;;5020468;28;9033;-77
2022/06/14 01:16:57;;;;;;;;;2.00;2.00;;;;;;;;5015152;28;8944;-77
2022/06/14 01:19:27;;;;;;;;;2.25;2.25;;;;;;;;5015017;28;8969;-77
2022/06/14 01:22:23;;;;;;;;;4.25;2.50;;;;;;;;5023058;28;8872;-76
2022/06/14 01:24:50;;;;;;;;;3.25;3.25;;;;;;;;5021801;28;8861;-77
2022/06/14 01:27:19;;;;;;;;;4.00;3.00;;;;;;;;5019352;28;8891;-77
2022/06/14 01:29:49;;;;;;;;;4.33;3.33;;;;;;;;5006156;28;8965;-77
2022/06/14 01:32:17;;;;;;;;;4.33;3.00;;;;;;;;5021507;28;8936;-78
2022/06/14 01:34:48;;;;;;;;;2.00;2.00;;;;;;;;5006510;28;8981;-76
2022/06/14 01:37:17;;;;;;;;;4.00;3.00;;;;;;;;5021139;28;9035;-76
2022/06/14 01:39:45;;;;;;;;;3.33;3.33;;;;;;;;5021707;28;8973;-77
2022/06/14 01:42:23;;;;;;;;;3.00;3.00;;;;;;;;5020113;28;8963;-77
2022/06/14 01:45:06;;;;;;;;;2.67;2.67;;;;;;;;5023738;28;8981;-76
2022/06/14 01:47:37;;;;;;;;;2.33;2.33;;;;;;;;5023046;28;9063;-76
2022/06/14 01:53:19;;;;;;;;;5.00;3.67;;;;;;;;5021141;28;9221;-77
2022/06/14 01:55:52;;;;;;;;;3.33;2.00;;;;;;;;5020505;28;9334;-77
2022/06/14 01:58:28;;;;;;;;;3.00;3.00;;;;;;;;5020592;28;9291;-77
2022/06/14 02:01:01;;;;;;;;;5.00;3.67;;;;;;;;5022921;28;8989;-77
2022/06/14 02:06:24;;;;;;;;;3.33;2.00;;;;;;;;5023507;28;9299;-77
2022/06/14 02:08:55;;;;;;;;;3.00;3.00;;;;;;;;5019224;28;9060;-77
2022/06/14 02:11:27;;;;;;;;;3.00;3.00;;;;;;;;5018959;28;9114;-77
2022/06/14 02:13:57;;;;;;;;;8.00;3.67;;;;;;;;5025138;28;9101;-77
2022/06/14 02:16:28;;;;;;;;;4.00;4.00;;;;;;;;5022600;28;9192;-77
2022/06/14 02:18:57;;;;;;;;;3.33;2.00;;;;;;;;5024041;28;9380;-78
2022/06/14 02:21:29;;;;;;;;;3.00;3.00;;;;;;;;5021589;28;9041;-77
2022/06/14 02:24:01;;;;;;;;;3.00;3.00;;;;;;;;5019215;28;9058;-77
2022/06/14 02:26:33;;;;;;;;;2.33;2.33;;;;;;;;5021715;28;9111;-77
2022/06/14 02:29:05;;;;;;;;;3.00;3.00;;;;;;;;5023205;28;9970;-77
2022/06/14 02:31:39;;;;;;;;;3.00;3.00;;;;;;;;5014308;28;9170;-77
2022/06/14 02:34:10;;;;;;;;;5.00;3.00;;;;;;;;5018311;28;9226;-78
2022/06/14 02:36:42;;;;;;;;;2.00;2.00;;;;;;;;5021968;28;9127;-78
2022/06/14 02:39:13;;;;;;;;;1.33;1.33;;;;;;;;5021265;28;9100;-78
2022/06/14 02:41:45;;;;;;;;;1.00;1.00;;;;;;;;5017739;28;9033;-77
2022/06/14 02:44:15;;;;;;;;;3.33;1.67;;;;;;;;5018612;28;9029;-77
2022/06/14 02:46:48;;;;;;;;;2.00;2.00;;;;;;;;5018316;28;9088;-77
2022/06/14 02:49:22;;;;;;;;;4.00;3.00;;;;;;;;5020223;28;9196;-77
2022/06/14 02:51:52;;;;;;;;;4.33;2.00;;;;;;;;5018624;28;9380;-77
2022/06/14 02:54:26;;;;;;;;;1.67;1.67;;;;;;;;5023694;28;9308;-77
2022/06/14 02:56:57;;;;;;;;;3.00;3.00;;;;;;;;5021364;28;9212;-77
2022/06/14 02:59:29;;;;;;;;;3.00;3.00;;;;;;;;5021648;28;9263;-77
2022/06/14 03:02:00;;;;;;;;;4.67;3.00;;;;;;;;5015768;28;9297;-77
2022/06/14 03:04:32;;;;;;;;;4.50;3.00;;;;;;;;5020572;28;9436;-77
2022/06/14 03:07:04;;;;;;;;;2.00;2.00;;;;;;;;5016629;28;9415;-77
2022/06/14 03:09:34;;;;;;;;;4.50;4.50;;;;;;;;5021934;28;9526;-77
2022/06/14 03:12:08;;;;;;;;;4.00;4.00;;;;;;;;5018208;28;9566;-77
2022/06/14 03:14:44;;;;;;;;;7.25;5.00;;;;;;;;5019351;28;9566;-77
2022/06/14 03:17:18;;;;;;;;;3.00;3.00;;;;;;;;5018640;28;9639;-77
2022/06/14 03:19:50;;;;;;;;;5.00;4.00;;;;;;;;5019846;28;9586;-77
2022/06/14 03:22:21;;;;;;;;;3.00;3.00;;;;;;;;5014083;28;9644;-77
2022/06/14 03:24:54;;;;;;;;;4.00;4.00;;;;;;;;5018510;28;9698;-77
2022/06/14 03:27:28;;;;;;;;;3.00;3.00;;;;;;;;5021446;28;9559;-77
2022/06/14 03:30:01;;;;;;;;;3.25;3.25;;;;;;;;5023640;28;9639;-78
2022/06/14 03:32:33;;;;;;;;;4.00;4.00;;;;;;;;5018221;28;9538;-77
2022/06/14 03:35:05;;;;;;;;;3.00;3.00;;;;;;;;5020717;28;9631;-77
2022/06/14 03:37:33;;;;;;;;;3.00;3.00;;;;;;;;5019878;28;9621;-76
2022/06/14 03:40:06;;;;;;;;;3.00;3.00;;;;;;;;5002803;28;9754;-77
2022/06/14 03:42:35;;;;;;;;;2.75;2.75;;;;;;;;5016456;28;9921;-78
2022/06/14 03:45:03;;;;;;;;;3.00;3.00;;;;;;;;5018613;28;9787;-77
2022/06/14 03:47:30;;;;;;;;;6.00;3.00;;;;;;;;5015576;28;9796;-77
2022/06/14 03:50:01;;;;;;;;;3.75;3.75;;;;;;;;5016284;28;9714;-77
2022/06/14 03:52:50;;;;;;;;;3.00;3.00;;;;;;;;5016685;28;10037;-77
2022/06/14 03:55:33;;;;;;;;;3.00;3.00;;;;;;;;5017533;28;10235;-78
2022/06/14 03:58:13;;;;;;;;;4.50;2.50;;;;;;;;4996416;28;10715;-78
2022/06/14 04:00:49;;;;;;;;;2.50;2.50;;;;;;;;5016470;28;9904;-77
2022/06/14 04:03:34;;;;;;;;;3.00;2.50;;;;;;;;5012827;28;9941;-78
2022/06/14 04:06:12;;;;;;;;;2.00;2.00;;;;;;;;4993995;28;10924;-79
2022/06/14 04:08:49;;;;;;;;;2.50;2.50;;;;;;;;5016359;28;10121;-77
2022/06/14 04:11:24;;;;;;;;;3.00;3.00;;;;;;;;5018363;28;10062;-77
2022/06/14 04:14:02;;;;;;;;;3.50;2.75;;;;;;;;5019166;28;10116;-77
2022/06/14 04:16:39;;;;;;;;;2.00;2.00;;;;;;;;5018421;28;10113;-77
2022/06/14 04:19:14;;;;;;;;;2.75;2.75;;;;;;;;5015525;28;10132;-78
2022/06/14 04:21:49;;;;;;;;;2.50;2.50;;;;;;;;5016735;28;10147;-77
2022/06/14 04:24:25;;;;;;;;;2.75;2.25;;;;;;;;5014165;28;10673;-77
2022/06/14 04:26:59;;;;;;;;;3.75;3.75;;;;;;;;5015307;28;10216;-78
2022/06/14 04:29:31;;;;;;;;;2.75;2.75;;;;;;;;5023033;28;11408;-78
2022/06/14 04:32:04;;;;;;;;;1.00;1.00;;;;;;;;5000973;28;10073;-78
2022/06/14 04:34:35;;;;;;;;;3.00;3.00;;;;;;;;5015012;28;10096;-78
2022/06/14 04:37:06;;;;;;;;;3.00;3.00;;;;;;;;5020467;28;10199;-77
2022/06/14 04:39:38;;;;;;;;;1.50;1.50;;;;;;;;5016607;28;10069;-79
2022/06/14 04:42:12;;;;;;;;;4.00;2.25;;;;;;;;5018973;28;9989;-79
2022/06/14 04:44:44;;;;;;;;;2.00;2.00;;;;;;;;5020982;28;10929;-79
2022/06/14 04:47:15;;;;;;;;;3.00;3.00;;;;;;;;5021133;28;10882;-78
2022/06/14 04:49:48;;;;;;;;;3.00;3.00;;;;;;;;5001793;28;10145;-77
2022/06/14 04:52:20;;;;;;;;;5.00;3.75;;;;;;;;5015791;28;10059;-79
2022/06/14 04:54:52;;;;;;;;;5.75;3.00;;;;;;;;5015683;28;9943;-77
2022/06/14 04:57:26;;;;;;;;;4.25;4.00;;;;;;;;5017322;28;9882;-79
2022/06/14 04:59:58;;;;;;;;;7.25;5.25;;;;;;;;5020602;28;10069;-77
2022/06/14 05:02:28;;;;;;;;;2.50;2.50;;;;;;;;5022030;28;9929;-77
2022/06/14 05:04:58;;;;;;;;;3.75;3.00;;;;;;;;5018524;28;9790;-77
2022/06/14 05:07:29;;;;;;;;;4.50;4.00;;;;;;;;5022170;28;10612;-79
2022/06/14 05:10:02;;;;;;;;;4.00;4.00;;;;;;;;5017350;28;9995;-80
2022/06/14 05:12:36;;;;;;;;;4.00;4.00;;;;;;;;5017261;28;9662;-80
2022/06/14 05:15:09;;;;;;;;;7.50;6.50;;;;;;;;5017641;28;9942;-78
2022/06/14 05:17:40;;;;;;;;;7.00;4.50;;;;;;;;5024383;28;9892;-78
2022/06/14 05:20:12;;;;;;;;;7.25;7.25;;;;;;;;5020587;28;9903;-78
2022/06/14 05:22:42;;;;;;;;;5.00;5.00;;;;;;;;5015703;28;9731;-77
2022/06/14 05:25:11;;;;;;;;;4.00;3.25;;;;;;;;5017669;28;9555;-77
2022/06/14 05:27:49;;;;;;;;;5.00;5.00;;;;;;;;5013107;28;9746;-77
2022/06/14 05:30:27;;;;;;;;;4.75;4.75;;;;;;;;5023404;28;9442;-77
2022/06/14 05:32:59;;;;;;;;;6.75;4.00;;;;;;;;5021217;28;9547;-79
2022/06/14 05:35:33;;;;;;;;;6.00;4.00;;;;;;;;5026218;28;9607;-75
2022/06/14 05:38:13;;;;;;;;;4.00;4.00;;;;;;;;5006527;28;9507;-77
2022/06/14 05:40:46;;;;;;;;;5.00;3.67;;;;;;;;5018257;28;9553;-77
2022/06/14 05:43:17;;;;;;;;;4.00;4.00;;;;;;;;5000374;28;9274;-77
2022/06/14 05:45:47;;;;;;;;;3.67;3.67;;;;;;;;4996804;28;10088;-78
2022/06/14 05:48:22;;;;;;;;;6.33;4.67;;;;;;;;5021069;28;9055;-77
2022/06/14 05:50:52;;;;;;;;;3.33;3.33;;;;;;;;5021510;28;9038;-75
2022/06/14 05:53:25;;;;;;;;;3.00;3.00;;;;;;;;5023584;28;9856;-76
2022/06/14 05:55:55;;;;;;;;;3.00;3.00;;;;;;;;5023777;28;9835;-76
2022/06/14 05:58:27;;;;;;;;;3.33;3.33;;;;;;;;5022655;28;9019;-78
2022/06/14 06:00:57;;;;;;;;;4.00;4.00;;;;;;;;5023072;28;8903;-74
2022/06/14 06:03:29;;;;;;;;;9.25;3.50;;;;;;;;5017270;28;8951;-72
2022/06/14 06:06:01;;;;;;;;;2.25;2.25;;;;;;;;5023619;28;8896;-73
2022/06/14 06:08:42;;;;;;;;;3.25;3.00;;;;;;;;5022240;28;8841;-74
2022/06/14 06:11:13;;;;;;;;;2.50;2.50;;;;;;;;5014833;28;8865;-72
2022/06/14 06:13:46;;;;;;;;;2.00;2.00;;;;;;;;5022652;28;8853;-72
2022/06/14 06:16:18;;;;;;;;;4.00;3.00;;;;;;;;5019845;28;8861;-72
2022/06/14 06:18:48;;;;;;;;;3.00;3.00;;;;;;;;5022327;28;8873;-72
2022/06/14 06:21:24;;;;;;;;;2.25;2.25;;;;;;;;5019389;28;9005;-70
2022/06/14 06:23:58;;;;;;;;;5.00;3.25;;;;;;;;5019274;28;8868;-71
2022/06/14 06:26:33;;;;;;;;;2.75;2.75;;;;;;;;5016965;28;8833;-72
2022/06/14 06:29:08;;;;;;;;;2.50;2.50;;;;;;;;5019497;28;8864;-72
2022/06/14 06:31:37;;;;;;;;;3.25;3.25;;;;;;;;5019793;28;8906;-71
2022/06/14 06:34:10;;;;;;;;;2.00;2.00;;;;;;;;5019293;28;8898;-71
2022/06/14 06:36:58;;;;;;;;;1.00;1.00;;;;;;;;5020550;28;8899;-71
2022/06/14 06:39:31;;;;;;;;;2.00;2.00;;;;;;;;5018066;28;8853;-72
2022/06/14 06:42:09;;;;;;;;;3.50;2.50;;;;;;;;5016725;28;8865;-73
2022/06/14 06:44:48;;;;;;;;;2.00;2.00;;;;;;;;5022263;28;8864;-72
2022/06/14 06:47:22;;;;;;;;;2.00;2.00;;;;;;;;5015197;28;8907;-73
2022/06/14 06:50:03;;;;;;;;;4.25;3.00;;;;;;;;5016056;28;8868;-71
2022/06/14 06:52:44;;;;;;;;;2.00;2.00;;;;;;;;5019352;28;9601;-76
2022/06/14 06:55:14;;;;;;;;;2.00;2.00;;;;;;;;5020956;28;8930;-74
2022/06/14 06:57:44;;;;;;;;;4.00;2.67;;;;;;;;5022735;28;8909;-75
2022/06/14 07:00:16;;;;;;;;;3.00;3.00;;;;;;;;5002812;28;9492;-76
2022/06/14 07:02:47;;;;;;;;;3.25;2.00;;;;;;;;5015774;28;8880;-75
2022/06/14 07:05:17;;;;;;;;;2.00;2.00;;;;;;;;5017937;28;8836;-77
2022/06/14 07:07:59;;;;;;;;;2.00;2.00;;;;;;;;5003211;28;8999;-77
2022/06/14 07:10:32;;;;;;;;;2.00;2.00;;;;;;;;5018607;28;8849;-79
2022/06/14 07:13:04;;;;;;;;;2.25;2.25;;;;;;;;5020381;28;9634;-82
2022/06/14 07:15:36;;;;;;;;;3.00;3.00;;;;;;;;5002795;28;8891;-83
2022/06/14 07:21:03;;;;;;;;;4.00;2.50;;;;;;;;5012132;28;8947;-79
2022/06/14 07:23:38;;;;;;;;;4.00;2.00;;;;;;;;5014176;28;8849;-80
2022/06/14 07:26:13;;;;;;;;;2.00;2.00;;;;;;;;5016554;28;9530;-79
2022/06/14 07:28:48;;;;;;;;;2.00;2.00;;;;;;;;5023301;28;8876;-80
2022/06/14 07:31:23;;;;;;;;;1.25;1.25;;;;;;;;5016248;28;8824;-82
2022/06/14 07:36:40;;;;;;;;;4.00;4.00;;;;;;;;5017426;28;8882;-80
2022/06/14 07:39:12;;;;;;;;;2.00;2.00;;;;;;;;5016996;28;8979;-80
2022/06/14 07:41:44;;;;;;;;;4.25;3.00;;;;;;;;5001024;28;8869;-78
2022/06/14 07:44:19;;;;;;;;;1.00;1.00;;;;;;;;5020397;28;9014;-77
2022/06/14 07:46:58;;;;;;;;;1.25;1.25;;;;;;;;5021582;28;8869;-77
2022/06/14 07:49:33;;;;;;;;;1.75;1.75;;;;;;;;5018275;28;8888;-77
2022/06/14 07:52:07;;;;;;;;;3.00;3.00;;;;;;;;5017780;28;8876;-77
2022/06/14 07:54:37;;;;;;;;;1.60;1.60;;;;;;;;5019824;28;8975;-77
2022/06/14 07:57:10;;;;;;;;;2.40;2.40;;;;;;;;5017577;28;8910;-77
2022/06/14 07:59:42;;;;;;;;;3.20;3.20;;;;;;;;5020103;28;8991;-77
2022/06/14 08:02:18;;;;;;;;;3.00;3.00;;;;;;;;5020899;28;8805;-77
2022/06/14 08:04:49;;;;;;;;;5.60;3.00;;;;;;;;5020072;28;8880;-77
2022/06/14 08:07:18;;;;;;;;;1.80;1.80;;;;;;;;5022803;28;8860;-77
2022/06/14 08:09:50;;;;;;;;;2.80;2.80;;;;;;;;5004745;28;9006;-77
2022/06/14 08:12:24;;;;;;;;;4.00;2.20;;;;;;;;5020364;28;8881;-77
2022/06/14 08:14:55;;;;;;;;;3.60;2.00;;;;;;;;5022186;28;8837;-79
2022/06/14 08:17:27;;;;;;;;;2.00;2.00;;;;;;;;5021389;28;8900;-78
2022/06/14 08:19:58;;;;;;;;;2.00;2.00;;;;;;;;5020745;28;8868;-78
2022/06/14 08:22:31;;;;;;;;;3.80;3.00;;;;;;;;5020378;28;8877;-78
2022/06/14 08:25:03;;;;;;;;;2.00;2.00;;;;;;;;5022699;28;8882;-78
2022/06/14 08:27:35;;;;;;;;;2.20;2.20;;;;;;;;5019601;28;8877;-78
2022/06/14 08:30:06;;;;;;;;;3.00;3.00;;;;;;;;5022925;28;8876;-78
2022/06/14 08:32:38;;;;;;;;;3.00;3.00;;;;;;;;4998597;28;8804;-78
2022/06/14 08:35:08;;;;;;;;;2.00;2.00;;;;;;;;5015100;28;8886;-78
2022/06/14 08:37:40;;;;;;;;;3.60;3.00;;;;;;;;5016574;28;8886;-79
2022/06/14 08:40:17;;;;;;;;;2.60;2.60;;;;;;;;5015765;28;8891;-78
2022/06/14 08:42:47;;;;;;;;;4.40;3.00;;;;;;;;5018732;28;8897;-77
2022/06/14 08:45:20;;;;;;;;;4.40;3.60;;;;;;;;5015823;28;8918;-77
2022/06/14 08:48:01;;;;;;;;;3.40;3.40;;;;;;;;5016931;28;9552;-77
2022/06/14 08:50:45;;;;;;;;;3.00;1.80;;;;;;;;5003907;28;8979;-77
2022/06/14 08:53:39;;;;;;;;;2.40;2.40;;;;;;;;5017080;28;8875;-76
2022/06/14 08:56:17;;;;;;;;;2.60;2.60;;;;;;;;5000488;28;8868;-76
2022/06/14 08:59:21;;;;;;;;;3.60;2.00;;;;;;;;5002241;28;9002;-77
2022/06/14 09:02:15;;;;;;;;;3.00;3.00;;;;;;;;5013133;28;8801;-76
2022/06/14 09:05:12;;;;;;;;;2.80;2.80;;;;;;;;5019760;28;8896;-77
2022/06/14 09:08:18;;;;;;;;;0.00;0.00;;;;;;;;5015926;28;8868;-77
2022/06/14 09:11:00;;;;;;;;;2.60;2.60;;;;;;;;5017421;28;8873;-76
2022/06/14 09:13:47;;;;;;;;;2.00;2.00;;;;;;;;5016702;28;8901;-76
2022/06/14 09:16:55;;;;;;;;;2.00;2.00;;;;;;;;5019183;28;8875;-76
2022/06/14 09:19:29;;;;;;;;;3.20;3.20;;;;;;;;4956602;28;8891;-77
2022/06/14 09:22:08;;;;;;;;;2.20;2.20;;;;;;;;5006448;28;8876;-76
2022/06/14 09:24:52;;;;;;;;;2.60;2.60;;;;;;;;5016361;28;8884;-76
2022/06/14 09:27:42;;;;;;;;;2.80;2.80;;;;;;;;5011614;28;8870;-76
2022/06/14 09:30:37;;;;;;;;;2.40;2.40;;;;;;;;5022978;28;8958;-76
2022/06/14 09:33:30;;;;;;;;;2.20;2.20;;;;;;;;5016531;28;8999;-77
2022/06/14 09:36:26;;;;;;;;;2.40;2.40;;;;;;;;5009032;28;8988;-77
2022/06/14 09:39:14;;;;;;;;;3.00;3.00;;;;;;;;4998458;28;8896;-77
2022/06/14 09:42:13;;;;;;;;;3.60;2.60;;;;;;;;5008946;28;8893;-77
2022/06/14 09:45:09;;;;;;;;;2.20;2.20;;;;;;;;4965374;28;8861;-77
2022/06/14 09:48:05;;;;;;;;;3.60;3.60;;;;;;;;4987696;28;8938;-77
2022/06/14 09:51:02;;;;;;;;;1.80;1.80;;;;;;;;5008029;28;8895;-77
2022/06/14 09:54:05;;;;;;;;;3.80;2.20;;;;;;;;5015977;28;8892;-77
2022/06/14 09:57:06;;;;;;;;;2.60;2.60;;;;;;;;5009342;28;8869;-78
2022/06/14 09:59:58;;;;;;;;;3.00;1.80;;;;;;;;5022111;28;8869;-77
2022/06/14 10:02:34;;;;;;;;;3.00;3.00;;;;;;;;5021132;28;9606;-78
2022/06/14 10:05:35;;;;;;;;;3.60;3.60;;;;;;;;5018301;28;8904;-78
2022/06/14 10:08:32;;;;;;;;;2.80;2.80;;;;;;;;5016964;28;8894;-77
2022/06/14 10:11:12;;;;;;;;;2.80;2.80;;;;;;;;5016216;28;8887;-77
2022/06/14 10:13:59;;;;;;;;;2.80;2.80;;;;;;;;5017008;28;8883;-77
2022/06/14 10:16:48;;;;;;;;;2.60;2.60;;;;;;;;5013201;28;9473;-77
2022/06/14 10:19:36;;;;;;;;;4.20;2.60;;;;;;;;5001811;28;8886;-77
2022/06/14 10:22:16;;;;;;;;;2.60;2.60;;;;;;;;5017126;28;8841;-77
2022/06/14 10:24:48;;;;;;;;;2.20;2.20;;;;;;;;5017238;28;8872;-77
2022/06/14 10:30:22;;;;;;;;;2.00;2.00;;;;;;;;5021716;28;8841;-77
2022/06/14 10:33:20;;;;;;;;;1.80;1.80;;;;;;;;5001181;28;8876;-76
2022/06/14 10:35:54;;;;;;;;;1.80;1.80;;;;;;;;5004478;28;8892;-76
2022/06/14 10:38:53;;;;;;;;;2.40;2.40;;;;;;;;5022058;28;8880;-75
2022/06/14 10:41:27;;;;;;;;;1.00;1.00;;;;;;;;5001164;28;8950;-76
2022/06/14 10:44:01;;;;;;;;;2.00;2.00;;;;;;;;5023025;28;8869;-76
2022/06/14 10:46:30;;;;;;;;;2.60;2.60;;;;;;;;4999649;28;8879;-78
2022/06/14 10:49:28;;;;;;;;;1.00;1.00;;;;;;;;5019049;28;8976;-78
2022/06/14 10:52:24;;;;;;;;;2.40;2.40;;;;;;;;5021825;28;8857;-77
2022/06/14 10:55:01;;;;;;;;;3.60;2.80;;;;;;;;5017544;28;8864;-77
2022/06/14 10:57:41;;;;;;;;;2.00;2.00;;;;;;;;5023014;28;8881;-77
2022/06/14 11:00:29;;;;;;;;;2.40;2.40;;;;;;;;5007919;28;8901;-77
2022/06/14 11:03:24;;;;;;;;;1.20;1.20;;;;;;;;5017154;28;8902;-77
2022/06/14 11:06:11;;;;;;;;;1.00;1.00;;;;;;;;5021826;28;8864;-77
2022/06/14 11:08:48;;;;;;;;;2.00;2.00;;;;;;;;5021198;28;9493;-78
2022/06/14 11:11:39;;;;;;;;;2.20;2.20;;;;;;;;5021859;28;8873;-78
2022/06/14 11:14:13;;;;;;;;;1.40;1.40;;;;;;;;4997946;28;8864;-76
2022/06/14 11:16:50;;;;;;;;;1.00;1.00;;;;;;;;5022337;28;8877;-77
2022/06/14 11:19:47;;;;;;;;;0.00;0.00;;;;;;;;5000168;28;8990;-76
2022/06/14 11:22:28;;;;;;;;;2.00;2.00;;;;;;;;5015353;28;8872;-77
2022/06/14 11:25:01;;;;;;;;;1.80;1.80;;;;;;;;5022894;28;8915;-77
2022/06/14 11:27:35;;;;;;;;;1.60;1.60;;;;;;;;5017326;28;8902;-78
2022/06/14 11:30:19;;;;;;;;;2.00;2.00;;;;;;;;5015874;28;8887;-76
2022/06/14 11:32:58;;;;;;;;;3.00;3.00;;;;;;;;5021975;28;9486;-76
2022/06/14 11:35:42;;;;;;;;;1.60;1.60;;;;;;;;5017955;28;8870;-77
2022/06/14 11:38:44;;;;;;;;;2.40;1.80;;;;;;;;5021107;28;8916;-77
2022/06/14 11:41:14;;;;;;;;;2.00;2.00;;;;;;;;4989208;28;8873;-76
2022/06/14 11:43:50;;;;;;;;;1.00;1.00;;;;;;;;5019189;28;8873;-77
2022/06/14 11:46:34;;;;;;;;;0.20;0.20;;;;;;;;5021153;28;8950;-76
2022/06/14 11:49:06;;;;;;;;;0.00;0.00;;;;;;;;5021481;28;8853;-77
2022/06/14 11:51:43;;;;;;;;;1.20;1.20;;;;;;;;5018454;28;8903;-78
2022/06/14 11:54:19;;;;;;;;;2.80;1.40;;;;;;;;5015618;28;8873;-78
2022/06/14 11:56:59;;;;;;;;;1.80;1.80;;;;;;;;5000735;28;9667;-78
2022/06/14 11:59:53;;;;;;;;;1.80;1.80;;;;;;;;5021960;28;8888;-77
2022/06/14 12:02:40;;;;;;;;;1.00;1.00;;;;;;;;5008451;28;8845;-78
2022/06/14 12:05:16;;;;;;;;;2.20;2.20;;;;;;;;5023875;28;8868;-78
2022/06/14 12:07:46;;;;;;;;;1.60;1.40;;;;;;;;5017692;28;8895;-77
2022/06/14 12:10:32;;;;;;;;;2.60;2.60;;;;;;;;5022949;28;8906;-78
2022/06/14 12:13:13;;;;;;;;;1.00;1.00;;;;;;;;5018026;28;8883;-78
2022/06/14 12:15:48;;;;;;;;;3.00;2.00;;;;;;;;5016185;28;8962;-77
2022/06/14 12:18:17;;;;;;;;;1.00;1.00;;;;;;;;5017312;28;8863;-78
2022/06/14 12:20:52;;;;;;;;;1.80;1.80;;;;;;;;5018201;28;8904;-78
2022/06/14 12:23:24;;;;;;;;;1.00;1.00;;;;;;;;5000407;28;8865;-77
2022/06/14 12:28:54;;;;;;;;;2.40;2.40;;;;;;;;5006365;28;8866;-77
2022/06/14 12:31:26;;;;;;;;;3.00;1.00;;;;;;;;5019838;28;8818;-77
2022/06/14 12:33:57;;;;;;;;;2.20;2.20;;;;;;;;5018072;28;8869;-78
2022/06/14 12:36:32;;;;;;;;;2.40;1.40;;;;;;;;5017512;28;8895;-78
2022/06/14 12:39:04;;;;;;;;;2.80;2.00;;;;;;;;5019165;28;8884;-78
2022/06/14 12:41:38;;;;;;;;;1.40;1.40;;;;;;;;5019861;28;8966;-78
2022/06/14 12:44:22;;;;;;;;;1.20;1.20;;;;;;;;5017604;28;9002;-77
2022/06/14 12:46:50;;;;;;;;;2.00;2.00;;;;;;;;5002461;28;8935;-77
2022/06/14 12:49:24;;;;;;;;;2.00;0.80;;;;;;;;5014945;28;8863;-77
2022/06/14 12:51:55;;;;;;;;;1.80;1.80;;;;;;;;5020542;28;8864;-77
2022/06/14 12:54:31;;;;;;;;;1.60;1.60;;;;;;;;5020670;28;8884;-78
2022/06/14 12:57:06;;;;;;;;;2.60;2.60;;;;;;;;5017885;28;8857;-78
2022/06/14 12:59:43;;;;;;;;;2.00;2.00;;;;;;;;5022827;28;8901;-78
2022/06/14 13:02:15;;;;;;;;;0.60;0.60;;;;;;;;5015415;28;8833;-76
2022/06/14 13:04:46;;;;;;;;;2.80;2.80;;;;;;;;4997060;28;8888;-76
2022/06/14 13:07:34;;;;;;;;;2.80;2.60;;;;;;;;5020288;28;8875;-76
2022/06/14 13:10:12;;;;;;;;;2.00;1.60;;;;;;;;5016263;28;8883;-76
2022/06/14 13:12:49;;;;;;;;;1.00;1.00;;;;;;;;5018864;28;8852;-77
2022/06/14 13:15:25;;;;;;;;;2.00;2.00;;;;;;;;5023637;28;9003;-77
2022/06/14 13:18:12;;;;;;;;;2.00;2.00;;;;;;;;5016552;28;9030;-78
2022/06/14 13:20:45;;;;;;;;;2.20;2.20;;;;;;;;5002913;28;8872;-79
2022/06/14 13:23:30;;;;;;;;;1.00;1.00;;;;;;;;5018798;28;8919;-78
2022/06/14 13:26:25;;;;;;;;;2.00;2.00;;;;;;;;5020523;28;8892;-78
2022/06/14 13:29:03;;;;;;;;;1.00;1.00;;;;;;;;5023315;28;8858;-78
2022/06/14 13:31:45;;;;;;;;;1.00;1.00;;;;;;;;5019140;28;8817;-77
2022/06/14 13:34:26;;;;;;;;;1.00;1.00;;;;;;;;5017465;28;8879;-78
2022/06/14 13:37:03;;;;;;;;;2.20;2.20;;;;;;;;5023755;28;9413;-77
2022/06/14 13:39:33;;;;;;;;;1.80;1.80;;;;;;;;5019522;28;8898;-76
2022/06/14 13:42:06;;;;;;;;;1.00;1.00;;;;;;;;5022891;28;9163;-76
2022/06/14 13:44:40;;;;;;;;;1.80;1.80;;;;;;;;5020791;28;8878;-76
2022/06/14 13:47:14;;;;;;;;;1.00;1.00;;;;;;;;5022010;28;8865;-76
2022/06/14 13:49:46;;;;;;;;;1.80;1.80;;;;;;;;5017219;28;8876;-76
2022/06/14 13:52:19;;;;;;;;;1.80;1.80;;;;;;;;5019348;28;8894;-77
2022/06/14 13:54:51;;;;;;;;;1.80;1.80;;;;;;;;5020065;28;8875;-76
2022/06/14 13:57:29;;;;;;;;;2.00;2.00;;;;;;;;5018995;28;8869;-76
2022/06/14 14:00:03;;;;;;;;;1.20;1.20;;;;;;;;5020944;28;8920;-75
2022/06/14 14:02:39;;;;;;;;;2.20;2.20;;;;;;;;5018871;28;9318;-80
2022/06/14 14:05:15;;;;;;;;;1.60;1.60;;;;;;;;5022400;28;8897;-79
2022/06/14 14:07:50;;;;;;;;;2.40;2.40;;;;;;;;5004596;28;8876;-79
2022/06/14 14:10:33;;;;;;;;;1.80;1.80;;;;;;;;5020622;28;8944;-79
2022/06/14 14:13:04;;;;;;;;;2.80;2.80;;;;;;;;5017856;28;8879;-79
2022/06/14 14:15:36;;;;;;;;;2.20;2.00;;;;;;;;5019114;28;8857;-81
2022/06/14 14:18:14;;;;;;;;;1.80;1.80;;;;;;;;5018229;28;8881;-80
2022/06/14 14:20:48;;;;;;;;;2.00;2.00;;;;;;;;5021806;28;8902;-78
2022/06/14 14:23:33;;;;;;;;;3.00;3.00;;;;;;;;5019121;28;8997;-78
2022/06/14 14:26:05;;;;;;;;;1.60;1.60;;;;;;;;5019696;28;8930;-79
2022/06/14 14:28:44;;;;;;;;;1.00;1.00;;;;;;;;5022778;28;8888;-79
2022/06/14 14:31:23;;;;;;;;;2.00;2.00;;;;;;;;5015279;28;8821;-79
2022/06/14 14:33:56;;;;;;;;;1.20;1.20;;;;;;;;5016881;28;8857;-79
2022/06/14 14:37:00;;;;;;;;;3.20;3.20;;;;;;;;5011678;28;10005;-79
2022/06/14 14:40:01;;;;;;;;;2.00;2.00;;;;;;;;5001315;28;8841;-79
2022/06/14 14:42:49;;;;;;;;;1.00;1.00;;;;;;;;5020881;28;8947;-78
2022/06/14 14:45:20;;;;;;;;;2.40;2.00;;;;;;;;5012735;28;8892;-77
2022/06/14 14:47:52;;;;;;;;;1.00;1.00;;;;;;;;5019415;28;8882;-77
2022/06/14 14:50:30;;;;;;;;;3.00;3.00;;;;;;;;5017773;28;9686;-77
2022/06/14 14:53:03;;;;;;;;;2.00;2.00;;;;;;;;5020106;28;8903;-76
2022/06/14 14:55:35;;;;;;;;;2.00;2.00;;;;;;;;5013581;28;9770;-78
2022/06/14 14:58:11;;;;;;;;;2.20;2.20;;;;;;;;5020646;28;8864;-76
2022/06/14 15:06:36;;;;;;;;;1.00;1.00;;;;;;;;5020090;28;8991;-74
2022/06/14 15:09:06;;;;;;;;;2.00;2.00;;;;;;;;5019977;28;10150;-83
2022/06/14 15:11:41;;;;;;;;;3.80;2.00;;;;;;;;5017283;28;8987;-82
2022/06/14 15:14:18;;;;;;;;;1.20;1.20;;;;;;;;5021297;28;9016;-80
2022/06/14 15:16:51;;;;;;;;;2.00;2.00;;;;;;;;5017113;28;8913;-77
2022/06/14 15:22:17;;;;;;;;;1.60;1.60;;;;;;;;5014123;28;8849;-80
2022/06/14 15:24:50;;;;;;;;;1.00;1.00;;;;;;;;5014180;28;8869;-80
2022/06/14 15:27:18;;;;;;;;;2.40;2.40;;;;;;;;5021414;28;8873;-74
2022/06/14 15:29:49;;;;;;;;;2.00;2.00;;;;;;;;5018085;28;8888;-76
2022/06/14 15:32:19;;;;;;;;;2.60;2.60;;;;;;;;5016934;28;8841;-79
2022/06/14 15:34:48;;;;;;;;;2.00;2.00;;;;;;;;5018076;28;8855;-77
2022/06/14 15:37:32;;;;;;;;;2.00;2.00;;;;;;;;5016844;28;9004;-78
2022/06/14 15:40:03;;;;;;;;;3.20;3.20;;;;;;;;5019145;28;9086;-78
2022/06/14 15:42:38;;;;;;;;;1.80;1.80;;;;;;;;5014969;28;8872;-74
2022/06/14 15:45:23;;;;;;;;;1.60;1.60;;;;;;;;5020312;28;8869;-75
2022/06/14 15:47:58;;;;;;;;;2.40;1.00;;;;;;;;5022747;28;8837;-73
2022/06/14 15:50:29;;;;;;;;;1.80;1.80;;;;;;;;5019278;28;8856;-74
2022/06/14 15:53:01;;;;;;;;;2.00;2.00;;;;;;;;5021206;28;8875;-76
2022/06/14 15:55:31;;;;;;;;;2.00;2.00;;;;;;;;5021184;28;8852;-73
2022/06/14 15:58:03;;;;;;;;;2.00;2.00;;;;;;;;5019811;28;8979;-75
2022/06/14 16:00:33;;;;;;;;;5.00;2.00;;;;;;;;5015604;28;8821;-76
2022/06/14 16:03:05;;;;;;;;;1.60;1.60;;;;;;;;5016960;28;9011;-76
2022/06/14 16:05:36;;;;;;;;;2.00;2.00;;;;;;;;5022512;28;8837;-76
2022/06/14 16:08:08;;;;;;;;;3.40;1.80;;;;;;;;5016542;28;8924;-75
2022/06/14 16:10:37;;;;;;;;;3.00;3.00;;;;;;;;5018711;28;8870;-73
2022/06/14 16:13:08;;;;;;;;;3.80;3.40;;;;;;;;5019862;28;8930;-74
2022/06/14 16:15:46;;;;;;;;;1.40;1.40;;;;;;;;5021208;28;8986;-77